LGTS/SKG METAR and TAF weather

Enter ICAO airport designator
Station Type Date Time Source
LGTS METAR 2024/04/17 18:20 UTC NOAA

LGTS 171820Z 14008KT 9999 FEW018TCU SCT025 22/11 Q0996 TEMPO 5000 SHRA


Station Type Date Time Source
LGTS Decoded METAR 2024/04/17 18:20 UTC NOAA

Thessaloniki Airport , Greece (LGTS) 40-31N 022-58E 4M
Apr 17, 2024 - 02:20 PM EDT / 2024.04.17 1820 UTC
Wind: from the SE (140 degrees) at 9 MPH (8 KT):0
Visibility: greater than 7 mile(s):0
Sky conditions: partly cloudy
Weather: Towering cumulus clouds observed
Temperature: 71 F (22 C)
Dew Point: 51 F (11 C)
Relative Humidity: 49%
Pressure (altimeter): 29.41 in. Hg (0996 hPa)
ob: LGTS 171820Z 14008KT 9999 FEW018TCU SCT025 22/11 Q0996 TEMPO 5000 SHRA
cycle: 18

Station Type Date Time Source
LGTS TAF 2024/04/17 18:12 UTC NOAA